Time;durP1;ratioP1;P1;durP2;ratioP2;P2;SDS_P1;SDS_P2;PMS_P1;PMS_P2;Temp;Humidity;BMP_temperature;BMP_pressure;BME280_temperature;BME280_humidity;BME280_pressure;Samples;Min_cycle;Max_cycle;Signal;HPM_P1;HPM_P2
2021/07/23 00:00:42;;;;;;;37.28;24.08;;;12.00;99.90;;;;;;5070565;28;20044;-82
2021/07/23 00:03:09;;;;;;;36.05;23.48;;;12.10;99.90;;;;;;5070881;28;20056;-82
2021/07/23 00:05:36;;;;;;;42.75;25.63;;;12.10;99.90;;;;;;5071780;28;20148;-82
2021/07/23 00:08:03;;;;;;;41.30;25.38;;;12.10;99.90;;;;;;5071733;28;20564;-81
2021/07/23 00:10:30;;;;;;;38.35;24.35;;;12.10;99.90;;;;;;5070839;28;20057;-82
2021/07/23 00:12:57;;;;;;;33.13;22.95;;;12.10;99.90;;;;;;5070739;28;20471;-82
2021/07/23 00:15:23;;;;;;;37.45;23.92;;;12.10;99.90;;;;;;5071884;28;20536;-82
2021/07/23 00:17:50;;;;;;;38.00;23.20;;;12.10;99.90;;;;;;5071261;28;20420;-81
2021/07/23 00:20:17;;;;;;;37.03;23.85;;;12.10;99.90;;;;;;5070023;28;20051;-81
2021/07/23 00:22:44;;;;;;;35.92;24.52;;;12.10;99.90;;;;;;5070366;28;20058;-81
2021/07/23 00:25:11;;;;;;;33.92;23.40;;;12.10;99.90;;;;;;5071652;28;20045;-82
2021/07/23 00:27:38;;;;;;;35.13;23.33;;;12.10;99.90;;;;;;5070384;28;20048;-82
2021/07/23 00:30:06;;;;;;;33.95;23.42;;;12.00;99.90;;;;;;5071925;28;20051;-81
2021/07/23 00:32:36;;;;;;;34.65;23.13;;;12.00;99.90;;;;;;5071677;28;20496;-82
2021/07/23 00:35:03;;;;;;;36.22;22.92;;;12.00;99.90;;;;;;5070579;28;20049;-82
2021/07/23 00:37:30;;;;;;;40.08;23.92;;;11.80;99.90;;;;;;5070468;28;20497;-82
2021/07/23 00:39:56;;;;;;;35.22;23.48;;;11.70;99.90;;;;;;5071597;28;20094;-82
2021/07/23 00:42:39;;;;;;;40.90;25.67;;;11.60;99.90;;;;;;5073460;28;20054;-82
2021/07/23 00:45:07;;;;;;;39.60;25.77;;;11.50;99.90;;;;;;5075132;28;20102;-82
2021/07/23 00:47:36;;;;;;;45.28;27.38;;;11.40;99.90;;;;;;5073769;28;20044;-81
2021/07/23 00:50:06;;;;;;;40.50;25.77;;;11.40;99.90;;;;;;5075237;28;20174;-81
2021/07/23 00:52:33;;;;;;;39.97;25.58;;;11.40;99.90;;;;;;5073710;28;20143;-82
2021/07/23 00:55:02;;;;;;;46.75;25.88;;;11.40;99.90;;;;;;5075010;28;20048;-82
2021/07/23 00:57:30;;;;;;;45.80;26.50;;;11.50;99.90;;;;;;5074973;28;20045;-82
2021/07/23 00:59:58;;;;;;;44.95;27.38;;;11.50;99.90;;;;;;5083054;28;20140;-82
2021/07/23 01:02:25;;;;;;;47.67;27.90;;;11.40;99.90;;;;;;5076831;28;20128;-82
2021/07/23 01:04:53;;;;;;;40.88;26.10;;;11.30;99.90;;;;;;5073546;28;20489;-82
2021/07/23 01:07:19;;;;;;;39.20;26.25;;;11.30;99.90;;;;;;5073421;28;20053;-82
2021/07/23 01:09:46;;;;;;;41.63;25.73;;;11.40;99.90;;;;;;5073553;28;20135;-82
2021/07/23 01:12:14;;;;;;;48.97;27.58;;;11.30;99.90;;;;;;5075035;28;20095;-82
2021/07/23 01:14:42;;;;;;;44.80;27.48;;;11.20;99.90;;;;;;5074809;28;20472;-82
2021/07/23 01:17:09;;;;;;;44.53;28.00;;;11.10;99.90;;;;;;5073394;28;20147;-82
2021/07/23 01:19:52;;;;;;;45.40;27.13;;;11.10;99.90;;;;;;5073162;28;20060;-82
2021/07/23 01:22:21;;;;;;;44.05;27.08;;;11.10;99.90;;;;;;5074649;28;20041;-82
2021/07/23 01:24:48;;;;;;;48.75;27.73;;;11.00;99.90;;;;;;5074832;28;20139;-82
2021/07/23 01:27:16;;;;;;;46.33;27.85;;;10.90;99.90;;;;;;5074241;28;20052;-82
2021/07/23 01:29:43;;;;;;;45.40;28.70;;;10.90;99.90;;;;;;5073269;28;20040;-82
2021/07/23 01:32:10;;;;;;;50.05;28.42;;;10.90;99.90;;;;;;5074275;28;20421;-83
2021/07/23 01:34:39;;;;;;;45.30;27.77;;;10.90;99.90;;;;;;5073028;28;20044;-82
2021/07/23 01:37:06;;;;;;;51.25;29.58;;;10.80;99.90;;;;;;5073206;28;20049;-83
2021/07/23 01:39:33;;;;;;;47.95;27.67;;;10.80;99.90;;;;;;5074224;28;20539;-82
2021/07/23 01:41:59;;;;;;;54.35;30.40;;;10.90;99.90;;;;;;5072956;28;20049;-82
2021/07/23 01:44:26;;;;;;;44.28;27.08;;;10.80;99.90;;;;;;5072860;28;20040;-82
2021/07/23 01:46:53;;;;;;;46.38;27.65;;;10.80;99.90;;;;;;5072864;28;20072;-82
2021/07/23 01:49:20;;;;;;;42.42;28.05;;;10.80;99.90;;;;;;5072845;28;20451;-83
2021/07/23 01:51:46;;;;;;;49.95;28.58;;;10.90;99.90;;;;;;5072755;28;20127;-82
2021/07/23 01:54:13;;;;;;;45.47;26.67;;;10.80;99.90;;;;;;5072632;28;20048;-82
2021/07/23 01:56:41;;;;;;;49.30;28.15;;;10.90;99.90;;;;;;5072583;28;20400;-82
2021/07/23 01:59:07;;;;;;;51.17;28.52;;;10.80;99.90;;;;;;5073591;28;20493;-83
2021/07/23 02:01:34;;;;;;;51.53;29.77;;;10.80;99.90;;;;;;5073550;28;20055;-83
2021/07/23 02:04:03;;;;;;;45.47;27.33;;;10.70;99.90;;;;;;5073679;28;20404;-83
2021/07/23 02:06:29;;;;;;;49.97;28.15;;;10.80;99.90;;;;;;5073538;28;20098;-81
2021/07/23 02:08:56;;;;;;;43.58;26.45;;;10.90;99.90;;;;;;5073872;28;20091;-82
2021/07/23 02:11:23;;;;;;;40.97;26.23;;;10.90;99.90;;;;;;5072168;28;20400;-82
2021/07/23 02:13:50;;;;;;;48.97;28.13;;;11.00;99.90;;;;;;5073530;28;20410;-82
2021/07/23 02:16:17;;;;;;;45.63;27.13;;;11.00;99.90;;;;;;5073423;28;20131;-82
2021/07/23 02:18:43;;;;;;;50.85;29.02;;;10.80;99.90;;;;;;5088169;28;20139;-82
2021/07/23 02:21:10;;;;;;;44.70;26.58;;;10.70;99.90;;;;;;5074957;28;20066;-82
2021/07/23 02:23:37;;;;;;;43.30;26.48;;;10.70;99.90;;;;;;5072822;28;20045;-82
2021/07/23 02:26:03;;;;;;;49.38;28.50;;;10.50;99.90;;;;;;5073225;28;20056;-82
2021/07/23 02:28:30;;;;;;;46.97;27.52;;;10.40;99.90;;;;;;5071993;28;20062;-83
2021/07/23 02:30:57;;;;;;;53.20;29.52;;;10.40;99.90;;;;;;5072241;28;20048;-82
2021/07/23 02:33:23;;;;;;;54.42;30.90;;;10.30;99.90;;;;;;5071951;28;20051;-82
2021/07/23 02:35:50;;;;;;;59.00;30.45;;;10.30;99.90;;;;;;5072844;28;20059;-83
2021/07/23 02:38:17;;;;;;;55.22;30.08;;;10.30;99.90;;;;;;5071927;28;20051;-82
2021/07/23 02:40:44;;;;;;;48.15;29.58;;;10.30;99.90;;;;;;5073030;28;20518;-83
2021/07/23 02:43:10;;;;;;;48.05;28.80;;;10.40;99.90;;;;;;5071866;28;20401;-83
2021/07/23 02:45:37;;;;;;;50.60;29.00;;;10.50;99.90;;;;;;5071689;28;20095;-82
2021/07/23 02:48:04;;;;;;;50.22;29.63;;;10.40;99.90;;;;;;5071680;28;20492;-82
2021/07/23 02:50:31;;;;;;;50.33;29.85;;;10.50;99.90;;;;;;5071548;28;20055;-82
2021/07/23 02:52:57;;;;;;;51.88;29.65;;;10.50;99.90;;;;;;5072820;28;20131;-82
2021/07/23 02:55:29;;;;;;;51.97;30.33;;;10.40;99.90;;;;;;5071520;28;20059;-83
2021/07/23 02:57:55;;;;;;;56.55;30.67;;;10.30;99.90;;;;;;5071595;28;20056;-82
2021/07/23 03:00:22;;;;;;;51.90;28.48;;;10.20;99.90;;;;;;5072719;28;20055;-82
2021/07/23 03:02:49;;;;;;;49.67;28.55;;;10.20;99.90;;;;;;5071668;28;20047;-82
2021/07/23 03:05:16;;;;;;;55.95;29.50;;;10.10;99.90;;;;;;5070872;28;20052;-83
2021/07/23 03:07:43;;;;;;;52.60;29.95;;;10.00;99.90;;;;;;5071483;28;20087;-82
2021/07/23 03:10:11;;;;;;;51.75;29.50;;;10.00;99.90;;;;;;5071346;28;20056;-82
2021/07/23 03:12:38;;;;;;;66.57;33.22;;;10.00;99.90;;;;;;5072704;28;20105;-82
2021/07/23 03:15:05;;;;;;;70.55;34.45;;;10.00;99.90;;;;;;5071174;28;20052;-82
2021/07/23 03:17:32;;;;;;;56.35;30.35;;;10.00;99.90;;;;;;5072442;28;20396;-82
2021/07/23 03:19:59;;;;;;;56.42;30.55;;;9.90;99.90;;;;;;5072543;28;20048;-81
2021/07/23 03:22:27;;;;;;;70.03;32.50;;;9.90;99.90;;;;;;5072272;28;20052;-82
2021/07/23 03:24:55;;;;;;;59.42;32.35;;;10.00;99.90;;;;;;5071298;28;20059;-82
2021/07/23 03:27:22;;;;;;;60.90;33.45;;;10.00;99.90;;;;;;5072234;28;20139;-82
2021/07/23 03:29:52;;;;;;;64.03;34.05;;;10.00;99.90;;;;;;5072375;28;20040;-82
2021/07/23 03:32:19;;;;;;;66.25;34.85;;;10.00;99.90;;;;;;5070160;28;20088;-82
2021/07/23 03:34:45;;;;;;;60.72;32.53;;;9.90;99.90;;;;;;5071232;28;20048;-82
2021/07/23 03:37:12;;;;;;;63.67;33.22;;;10.00;99.90;;;;;;5090410;28;20044;-82
2021/07/23 03:39:39;;;;;;;66.13;33.58;;;10.00;99.90;;;;;;5073387;28;20053;-82
2021/07/23 03:42:06;;;;;;;72.63;37.40;;;10.10;99.90;;;;;;5071164;28;20052;-82
2021/07/23 03:44:33;;;;;;;63.95;32.53;;;10.10;99.90;;;;;;5071006;28;20041;-82
2021/07/23 03:47:00;;;;;;;67.75;34.78;;;10.10;99.90;;;;;;5070775;28;20044;-82
2021/07/23 03:49:26;;;;;;;75.45;36.85;;;10.10;99.90;;;;;;5070954;28;20044;-82
2021/07/23 03:51:55;;;;;;;66.22;34.70;;;10.10;99.90;;;;;;5071990;28;20167;-82
2021/07/23 03:54:22;;;;;;;74.57;38.00;;;10.20;99.90;;;;;;5071025;28;20056;-83
2021/07/23 03:56:49;;;;;;;63.30;33.55;;;10.20;99.90;;;;;;5070968;28;20052;-82
2021/07/23 03:59:16;;;;;;;62.88;33.92;;;10.20;99.90;;;;;;5070902;28;20447;-82
2021/07/23 04:01:42;;;;;;;66.25;35.75;;;10.30;99.90;;;;;;5072106;28;20052;-82
2021/07/23 04:04:09;;;;;;;57.17;33.35;;;10.40;99.90;;;;;;5070711;28;20052;-82
2021/07/23 04:06:36;;;;;;;69.10;36.92;;;10.50;99.90;;;;;;5071838;28;20373;-82
2021/07/23 04:09:03;;;;;;;59.40;33.40;;;10.70;99.90;;;;;;5072320;28;20049;-83
2021/07/23 04:11:36;;;;;;;59.42;32.80;;;10.70;99.90;;;;;;5072136;28;20094;-82
2021/07/23 04:14:03;;;;;;;68.00;35.40;;;10.80;99.90;;;;;;5071910;28;20045;-82
2021/07/23 04:16:29;;;;;;;59.00;34.58;;;10.90;99.90;;;;;;5072068;28;20527;-82
2021/07/23 04:18:56;;;;;;;57.08;33.85;;;10.90;99.90;;;;;;5074473;28;20428;-82
2021/07/23 04:21:23;;;;;;;60.03;33.30;;;11.00;99.90;;;;;;5074451;28;20045;-82
2021/07/23 04:23:50;;;;;;;54.78;32.47;;;11.20;99.90;;;;;;5074504;28;20040;-82
2021/07/23 04:26:16;;;;;;;55.10;32.08;;;11.30;99.90;;;;;;5075276;28;20516;-81
2021/07/23 04:28:43;;;;;;;53.42;33.78;;;11.40;99.90;;;;;;5075080;28;20053;-82
2021/07/23 04:31:10;;;;;;;45.70;29.25;;;11.50;99.90;;;;;;5074133;28;20048;-82
2021/07/23 04:33:36;;;;;;;44.90;29.17;;;11.70;99.90;;;;;;5074263;28;20055;-82
2021/07/23 04:36:14;;;;;;;39.25;25.90;;;11.70;99.90;;;;;;5075346;28;20074;-81
2021/07/23 04:38:40;;;;;;;37.85;27.58;;;11.80;99.90;;;;;;5075471;28;20467;-81
2021/07/23 04:41:07;;;;;;;41.20;28.77;;;11.90;99.90;;;;;;5075071;28;20439;-81
2021/07/23 04:43:38;;;;;;;44.53;28.80;;;12.00;99.90;;;;;;5073940;28;20051;-80
2021/07/23 04:46:06;;;;;;;40.80;27.50;;;12.00;99.90;;;;;;5073899;28;20056;-82
2021/07/23 04:48:33;;;;;;;39.72;27.63;;;12.10;99.90;;;;;;5075148;28;20055;-82
2021/07/23 04:51:06;;;;;;;39.65;27.17;;;12.10;99.90;;;;;;5074121;28;20443;-82
2021/07/23 04:53:33;;;;;;;41.65;26.95;;;12.10;99.90;;;;;;5075035;28;20044;-81
2021/07/23 04:56:04;;;;;;;37.60;25.23;;;12.30;99.90;;;;;;5085431;28;20204;-82
2021/07/23 04:58:31;;;;;;;35.65;25.20;;;12.50;99.90;;;;;;5077804;28;20432;-82
2021/07/23 05:00:58;;;;;;;32.53;23.73;;;12.60;99.90;;;;;;5074783;28;20516;-82
2021/07/23 05:03:35;;;;;;;37.15;24.95;;;12.60;99.90;;;;;;5074467;28;20048;-82
2021/07/23 05:06:05;;;;;;;34.30;23.27;;;12.70;99.90;;;;;;5072925;28;20064;-82
2021/07/23 05:08:35;;;;;;;38.88;23.60;;;12.80;99.90;;;;;;5072185;28;20059;-82
2021/07/23 05:11:05;;;;;;;33.55;23.35;;;12.90;99.90;;;;;;5074373;28;20059;-82
2021/07/23 05:13:34;;;;;;;33.83;23.77;;;13.00;99.90;;;;;;5072906;28;20053;-82
2021/07/23 05:16:02;;;;;;;35.35;22.98;;;13.20;99.90;;;;;;5073157;28;20076;-82
2021/07/23 05:18:30;;;;;;;30.50;21.38;;;13.70;99.90;;;;;;5074145;28;20056;-82
2021/07/23 05:20:57;;;;;;;30.63;20.13;;;14.00;99.90;;;;;;5074269;28;20393;-82
2021/07/23 05:23:23;;;;;;;28.55;20.10;;;14.40;99.90;;;;;;5073094;28;20048;-82
2021/07/23 05:25:50;;;;;;;25.25;18.75;;;14.80;99.90;;;;;;5074183;28;20086;-82
2021/07/23 05:28:17;;;;;;;26.17;18.30;;;15.20;99.90;;;;;;5073866;28;20079;-82
2021/07/23 05:31:05;;;;;;;26.35;17.48;;;16.10;99.90;;;;;;5074415;28;20045;-82
2021/07/23 05:33:32;;;;;;;20.67;16.42;;;17.70;99.90;;;;;;5073489;28;20052;-83
2021/07/23 05:35:58;;;;;;;27.70;17.13;;;19.20;99.90;;;;;;5072776;28;20088;-83
2021/07/23 05:38:25;;;;;;;24.63;17.08;;;20.30;99.90;;;;;;5074498;28;20049;-82
2021/07/23 05:40:52;;;;;;;23.58;16.58;;;20.50;99.90;;;;;;5073194;28;20052;-83
2021/07/23 05:43:20;;;;;;;21.85;16.77;;;20.60;99.90;;;;;;5072984;28;20083;-82
2021/07/23 05:45:47;;;;;;;23.15;17.13;;;21.50;99.90;;;;;;5074110;28;20106;-83
2021/07/23 05:48:13;;;;;;;19.08;16.27;;;21.80;99.90;;;;;;5073927;28;20109;-83
2021/07/23 05:50:40;;;;;;;20.15;15.48;;;22.10;99.90;;;;;;5073017;28;20412;-81
2021/07/23 05:53:07;;;;;;;24.45;17.00;;;22.80;99.90;;;;;;5072877;28;20497;-83
2021/07/23 05:55:34;;;;;;;22.33;17.10;;;22.90;99.90;;;;;;5072643;28;20157;-83
2021/07/23 05:58:00;;;;;;;27.00;17.40;;;23.10;99.90;;;;;;5072611;28;20053;-83
2021/07/23 06:00:27;;;;;;;28.40;17.25;;;22.80;99.90;;;;;;5072563;28;20127;-83
2021/07/23 06:03:00;;;;;;;23.20;17.27;;;23.30;99.90;;;;;;5073691;28;20496;-83
2021/07/23 06:05:27;;;;;;;24.90;16.85;;;23.80;99.90;;;;;;5072517;28;20079;-82
2021/07/23 06:07:54;;;;;;;27.17;16.73;;;24.20;99.90;;;;;;5072407;28;20473;-84
2021/07/23 06:10:21;;;;;;;27.27;17.05;;;24.40;99.90;;;;;;5071543;28;20123;-81
2021/07/23 06:12:47;;;;;;;31.42;17.48;;;24.80;99.90;;;;;;5071711;28;20064;-82
2021/07/23 06:15:16;;;;;;;26.85;17.23;;;25.10;99.10;;;;;;5077296;28;20492;-83
2021/07/23 06:17:43;;;;;;;29.75;17.05;;;24.70;99.10;;;;;;5075699;28;20512;-82
2021/07/23 06:20:10;;;;;;;27.00;17.23;;;24.90;97.30;;;;;;5071826;28;20063;-83
2021/07/23 06:22:37;;;;;;;31.25;16.70;;;25.30;97.80;;;;;;5071928;28;20040;-83
2021/07/23 06:25:04;;;;;;;24.05;16.35;;;25.00;97.50;;;;;;5073187;28;20048;-82
2021/07/23 06:27:31;;;;;;;34.83;17.88;;;24.70;97.20;;;;;;5072023;28;20054;-83
2021/07/23 06:29:58;;;;;;;25.90;17.60;;;24.40;99.10;;;;;;5071881;28;20044;-82
2021/07/23 06:32:27;;;;;;;30.67;17.73;;;23.70;99.90;;;;;;5073211;28;20084;-83
2021/07/23 06:34:54;;;;;;;23.88;17.13;;;23.20;99.90;;;;;;5073160;28;20484;-83
2021/07/23 06:37:21;;;;;;;29.88;17.10;;;22.90;99.90;;;;;;5071890;28;20044;-82
2021/07/23 06:39:49;;;;;;;25.98;15.15;;;23.40;99.90;;;;;;5071236;28;20135;-83
2021/07/23 06:42:21;;;;;;;24.52;17.60;;;24.20;99.90;;;;;;5071795;28;20045;-83
2021/07/23 06:44:48;;;;;;;21.03;16.63;;;24.70;99.90;;;;;;5072980;28;20045;-82
2021/07/23 06:47:15;;;;;;;20.98;16.45;;;25.40;99.70;;;;;;5071597;28;20049;-84
2021/07/23 06:49:43;;;;;;;24.75;15.88;;;25.90;98.70;;;;;;5071862;28;20516;-83
2021/07/23 06:52:10;;;;;;;22.13;15.52;;;26.70;97.60;;;;;;5071795;28;20052;-80
2021/07/23 06:54:37;;;;;;;23.92;16.10;;;27.60;94.50;;;;;;5071912;28;20132;-80
2021/07/23 06:57:04;;;;;;;22.83;16.67;;;27.90;93.10;;;;;;5071475;28;20054;-81
2021/07/23 06:59:35;;;;;;;19.55;15.80;;;28.50;91.40;;;;;;5071543;28;20044;-83
2021/07/23 07:02:02;;;;;;;23.25;14.85;;;28.90;87.00;;;;;;5072805;28;20127;-83
2021/07/23 07:04:30;;;;;;;23.67;15.23;;;29.10;85.50;;;;;;5071501;28;20374;-83
2021/07/23 07:06:57;;;;;;;17.13;14.98;;;29.40;84.20;;;;;;5072634;28;20086;-83
2021/07/23 07:09:26;;;;;;;20.83;15.77;;;29.50;78.60;;;;;;5072498;28;20090;-82
2021/07/23 07:11:57;;;;;;;19.15;15.52;;;29.60;80.60;;;;;;5071186;28;20424;-82
2021/07/23 07:14:25;;;;;;;16.80;14.98;;;29.90;76.80;;;;;;5071450;28;20059;-84
2021/07/23 07:16:53;;;;;;;19.73;14.65;;;29.90;74.10;;;;;;5071561;28;20074;-83
2021/07/23 07:19:20;;;;;;;19.60;14.48;;;30.60;74.00;;;;;;5071262;28;20052;-82
2021/07/23 07:21:49;;;;;;;15.85;13.88;;;30.40;70.90;;;;;;5071301;28;20078;-82
2021/07/23 07:24:17;;;;;;;19.48;14.02;;;30.50;73.00;;;;;;5071184;28;20048;-83
2021/07/23 07:26:45;;;;;;;17.70;14.20;;;31.30;71.60;;;;;;5072459;28;20055;-82
2021/07/23 07:29:13;;;;;;;18.02;14.63;;;31.30;69.70;;;;;;5071322;28;20048;-82
2021/07/23 07:31:40;;;;;;;19.17;14.05;;;31.80;68.70;;;;;;5072594;28;20048;-80
2021/07/23 07:34:08;;;;;;;17.38;13.60;;;31.60;67.90;;;;;;5076026;28;20144;-81
2021/07/23 07:36:35;;;;;;;18.27;13.82;;;32.30;65.60;;;;;;5074917;28;20051;-80
2021/07/23 07:39:04;;;;;;;21.55;14.35;;;32.70;63.70;;;;;;5071136;28;20047;-83
2021/07/23 07:41:31;;;;;;;18.73;14.02;;;32.40;63.20;;;;;;5071089;28;20055;-80
2021/07/23 07:43:58;;;;;;;18.70;12.40;;;33.10;63.10;;;;;;5071117;28;20147;-80
2021/07/23 07:46:25;;;;;;;16.42;13.48;;;34.30;60.50;;;;;;5070877;28;20055;-81
2021/07/23 07:48:52;;;;;;;18.73;12.90;;;34.10;59.60;;;;;;5071049;28;20044;-81
2021/07/23 07:51:19;;;;;;;16.40;12.65;;;34.00;58.30;;;;;;5073831;28;20084;-82
2021/07/23 07:53:46;;;;;;;14.32;12.85;;;34.10;60.20;;;;;;5076289;28;20048;-83
2021/07/23 07:56:14;;;;;;;16.52;13.35;;;34.50;59.60;;;;;;5074930;28;20048;-84
2021/07/23 07:58:41;;;;;;;20.30;13.48;;;34.00;58.50;;;;;;5075042;28;20075;-81
2021/07/23 08:01:09;;;;;;;14.10;12.60;;;34.80;59.30;;;;;;5076285;28;20055;-81
2021/07/23 08:03:37;;;;;;;19.52;14.00;;;34.30;57.70;;;;;;5076117;28;20106;-80
2021/07/23 08:06:27;;;;;;;19.55;13.50;;;34.20;58.50;;;;;;5075767;28;20061;-80
2021/07/23 08:08:57;;;;;;;15.85;12.52;;;35.40;56.70;;;;;;5074966;28;20080;-81
2021/07/23 08:11:23;;;;;;;13.57;11.98;;;37.00;55.20;;;;;;5075941;28;20127;-82
2021/07/23 08:13:50;;;;;;;14.38;12.43;;;36.70;55.20;;;;;;5074760;28;20378;-83
2021/07/23 08:16:17;;;;;;;13.75;12.43;;;37.00;53.60;;;;;;5074406;28;20044;-84
2021/07/23 08:18:44;;;;;;;15.05;12.40;;;36.70;52.50;;;;;;5074606;28;20059;-83
2021/07/23 08:21:11;;;;;;;14.00;12.27;;;36.50;52.70;;;;;;5074550;28;20040;-84
2021/07/23 08:23:37;;;;;;;13.88;12.00;;;37.60;52.60;;;;;;5074508;28;20056;-82
2021/07/23 08:26:04;;;;;;;16.83;12.38;;;37.40;52.50;;;;;;5074600;28;20083;-84
2021/07/23 08:28:32;;;;;;;17.08;12.75;;;37.80;51.40;;;;;;5074351;28;20056;-83
2021/07/23 08:30:59;;;;;;;13.60;12.18;;;37.10;51.70;;;;;;5074401;28;20044;-83
2021/07/23 08:33:28;;;;;;;17.70;11.65;;;37.30;51.80;;;;;;5074516;28;20075;-85
2021/07/23 08:35:54;;;;;;;16.60;12.30;;;37.90;50.80;;;;;;5074374;28;20048;-82
2021/07/23 08:38:21;;;;;;;15.32;12.25;;;37.50;51.90;;;;;;5074276;28;20044;-82
2021/07/23 08:40:48;;;;;;;14.30;12.50;;;37.80;50.90;;;;;;5074269;28;20135;-81
2021/07/23 08:43:15;;;;;;;14.52;13.13;;;38.80;50.50;;;;;;5074208;28;20051;-82
2021/07/23 08:45:42;;;;;;;14.15;12.68;;;39.70;48.60;;;;;;5074943;28;20098;-85
2021/07/23 08:48:09;;;;;;;16.77;13.00;;;38.10;49.50;;;;;;5074013;28;20067;-81
2021/07/23 08:50:37;;;;;;;17.38;12.32;;;37.10;51.60;;;;;;5074084;28;20051;-82
2021/07/23 08:53:09;;;;;;;16.23;12.95;;;37.50;50.90;;;;;;5078991;28;20412;-82
2021/07/23 08:55:37;;;;;;;13.48;12.02;;;38.20;50.20;;;;;;5082323;28;20052;-82
2021/07/23 08:58:09;;;;;;;15.23;12.30;;;37.30;51.60;;;;;;5074024;28;20088;-82
2021/07/23 09:00:37;;;;;;;12.15;10.75;;;38.30;50.60;;;;;;5074081;28;20066;-83
2021/07/23 09:03:06;;;;;;;13.55;11.82;;;39.60;50.20;;;;;;5073116;28;20059;-83
2021/07/23 09:05:35;;;;;;;15.25;13.43;;;39.80;48.20;;;;;;5073645;28;20057;-83
2021/07/23 09:08:14;;;;;;;14.35;12.27;;;39.30;48.60;;;;;;5073576;28;20127;-83
2021/07/23 09:10:42;;;;;;;15.23;12.38;;;40.00;49.50;;;;;;5075010;28;20059;-84
2021/07/23 09:13:09;;;;;;;12.07;10.82;;;40.30;47.60;;;;;;5073751;28;20051;-83
2021/07/23 09:15:39;;;;;;;14.65;11.52;;;39.60;47.90;;;;;;5073666;28;20087;-83
2021/07/23 09:18:07;;;;;;;15.35;11.35;;;40.70;46.80;;;;;;5074729;28;20117;-82
2021/07/23 09:20:36;;;;;;;15.20;11.48;;;39.30;48.90;;;;;;5074824;28;20133;-82
2021/07/23 09:23:05;;;;;;;12.15;10.80;;;39.80;47.10;;;;;;5073392;28;20485;-82
2021/07/23 09:25:52;;;;;;;17.00;10.65;;;40.40;47.50;;;;;;5073426;28;20127;-82
2021/07/23 09:28:21;;;;;;;13.48;11.40;;;41.30;45.40;;;;;;5073417;28;20136;-82
2021/07/23 09:30:49;;;;;;;14.85;11.48;;;40.80;45.30;;;;;;5074535;28;20049;-82
2021/07/23 09:33:24;;;;;;;16.63;10.90;;;41.40;45.40;;;;;;5073143;28;20044;-83
2021/07/23 09:35:53;;;;;;;12.95;11.23;;;41.10;44.90;;;;;;5074256;28;20470;-82
2021/07/23 09:38:24;;;;;;;14.13;10.73;;;39.70;47.30;;;;;;5073335;28;20127;-83
2021/07/23 09:40:52;;;;;;;13.77;10.70;;;40.30;46.50;;;;;;5074459;28;20405;-85
2021/07/23 09:43:35;;;;;;;11.02;9.95;;;40.30;46.10;;;;;;5073497;28;20102;-84
2021/07/23 09:46:18;;;;;;;;;;;40.20;46.00;;;;;;5073266;28;20044;-84
2021/07/23 09:48:45;;;;;;;13.13;9.68;;;39.80;45.90;;;;;;5076035;28;19927;-82
2021/07/23 09:51:12;;;;;;;12.68;10.55;;;40.70;45.60;;;;;;5074341;28;20127;-85
2021/07/23 09:53:40;;;;;;;12.82;10.50;;;40.60;44.10;;;;;;5074386;28;20048;-85
2021/07/23 09:56:08;;;;;;;11.98;9.50;;;39.50;45.40;;;;;;5073616;28;20045;-82
2021/07/23 09:58:40;;;;;;;22.20;10.40;;;39.10;46.60;;;;;;5072689;28;20140;-82
2021/07/23 10:01:10;;;;;;;12.20;9.27;;;40.30;46.60;;;;;;5074102;28;20044;-84
2021/07/23 10:03:41;;;;;;;9.70;8.70;;;40.00;45.30;;;;;;5073039;28;20056;-82
2021/07/23 10:06:23;;;;;;;10.10;9.18;;;40.50;44.60;;;;;;5073784;28;20059;-86
2021/07/23 10:08:55;;;;;;;11.57;9.68;;;41.80;44.60;;;;;;5072901;28;20519;-85
2021/07/23 10:11:23;;;;;;;14.27;9.88;;;39.60;43.70;;;;;;5073877;28;20047;-83
2021/07/23 10:13:54;;;;;;;12.20;9.63;;;39.80;44.80;;;;;;5083060;28;20049;-84
2021/07/23 10:16:21;;;;;;;10.07;8.75;;;39.80;45.20;;;;;;5076941;28;20041;-83
2021/07/23 10:18:49;;;;;;;9.77;8.82;;;39.50;45.60;;;;;;5072174;28;20459;-83
2021/07/23 10:21:16;;;;;;;10.05;9.05;;;41.80;44.50;;;;;;5072728;28;20050;-84
2021/07/23 10:23:44;;;;;;;13.75;9.00;;;40.60;44.50;;;;;;5073766;28;20054;-85
2021/07/23 10:26:12;;;;;;;10.88;8.23;;;40.00;43.90;;;;;;5072380;28;20051;-83
2021/07/23 10:28:43;;;;;;;12.05;7.72;;;39.70;45.90;;;;;;5073374;28;20052;-82
2021/07/23 10:31:32;;;;;;;14.10;9.15;;;40.30;44.70;;;;;;5072122;28;20054;-84
2021/07/23 10:34:06;;;;;;;9.25;8.45;;;39.80;44.60;;;;;;5068580;28;20045;-83
2021/07/23 10:36:41;;;;;;;9.27;8.38;;;39.10;46.20;;;;;;5072021;28;20524;-82
2021/07/23 10:39:09;;;;;;;8.60;7.63;;;39.80;45.90;;;;;;5072190;28;20389;-82
2021/07/23 10:41:39;;;;;;;9.57;8.45;;;41.00;45.70;;;;;;5071976;28;20059;-83
2021/07/23 10:44:27;;;;;;;10.15;9.07;;;39.60;44.60;;;;;;5071918;28;20084;-84
2021/07/23 10:46:56;;;;;;;9.45;8.50;;;38.10;46.10;;;;;;5073330;28;20468;-84
2021/07/23 10:49:31;;;;;;;10.55;8.73;;;36.40;48.20;;;;;;5072021;28;20053;-83
2021/07/23 10:52:00;;;;;;;9.27;8.18;;;36.80;48.50;;;;;;5071943;28;20048;-85
2021/07/23 10:54:32;;;;;;;9.52;8.68;;;36.50;47.30;;;;;;5071793;28;20123;-84
2021/07/23 10:57:00;;;;;;;11.38;8.05;;;35.30;48.00;;;;;;5073126;28;20139;-83
2021/07/23 10:59:42;;;;;;;11.52;8.13;;;36.00;49.50;;;;;;5073117;28;20080;-83
2021/07/23 11:02:15;;;;;;;14.30;8.73;;;37.00;48.90;;;;;;5071863;28;20512;-82
2021/07/23 11:04:51;;;;;;;8.57;7.60;;;37.50;47.30;;;;;;5071650;28;20157;-84
2021/07/23 11:07:24;;;;;;;10.73;8.43;;;37.60;47.50;;;;;;5072736;28;20571;-84
2021/07/23 11:09:51;;;;;;;8.85;7.95;;;36.50;45.90;;;;;;5071629;28;20131;-82
2021/07/23 11:12:26;;;;;;;9.45;8.23;;;36.10;47.80;;;;;;5071207;28;20054;-83
2021/07/23 11:15:05;;;;;;;9.43;8.43;;;35.80;48.60;;;;;;5071622;28;20049;-84
2021/07/23 11:17:32;;;;;;;10.40;8.40;;;36.00;48.50;;;;;;5071456;28;20051;-84
2021/07/23 11:20:04;;;;;;;8.98;8.07;;;37.50;48.00;;;;;;5071644;28;20514;-85
2021/07/23 11:22:33;;;;;;;10.45;8.93;;;37.80;46.40;;;;;;5073150;28;20067;-84
2021/07/23 11:25:02;;;;;;;9.43;8.40;;;37.40;47.40;;;;;;5071824;28;20055;-84
2021/07/23 11:27:31;;;;;;;9.82;7.88;;;37.90;46.80;;;;;;5072167;28;20053;-89
2021/07/23 11:29:58;;;;;;;8.95;8.05;;;36.80;46.20;;;;;;5071613;28;20135;-84
2021/07/23 11:32:29;;;;;;;12.63;9.43;;;35.20;48.20;;;;;;5079623;28;20048;-87
2021/07/23 11:35:10;;;;;;;10.35;8.63;;;33.50;50.10;;;;;;5079777;28;20045;-83
2021/07/23 11:37:37;;;;;;;9.63;8.00;;;33.50;51.30;;;;;;5071922;28;20523;-84
2021/07/23 11:40:07;;;;;;;9.60;8.70;;;33.40;52.30;;;;;;5071525;28;20059;-82
2021/07/23 11:42:37;;;;;;;12.48;8.77;;;32.80;53.50;;;;;;5072051;28;20122;-83
2021/07/23 11:45:06;;;;;;;11.43;8.43;;;32.20;53.40;;;;;;5070774;28;20052;-84
2021/07/23 11:47:49;;;;;;;10.30;8.57;;;32.10;54.90;;;;;;5071692;28;20055;-86
2021/07/23 11:50:21;;;;;;;10.10;9.10;;;31.90;54.60;;;;;;5072219;28;20062;-83
2021/07/23 11:52:50;;;;;;;12.95;8.80;;;32.20;54.20;;;;;;5071340;28;20045;-85
2021/07/23 11:55:18;;;;;;;9.52;8.52;;;32.90;53.30;;;;;;5070885;28;20075;-84
2021/07/23 11:57:47;;;;;;;11.68;9.00;;;32.80;52.00;;;;;;5070975;28;20052;-82
2021/07/23 12:00:21;;;;;;;11.23;9.13;;;32.20;53.00;;;;;;5072051;28;20252;-82
2021/07/23 12:02:49;;;;;;;9.68;8.77;;;32.10;54.60;;;;;;5072279;28;20408;-84
2021/07/23 12:05:17;;;;;;;10.57;9.05;;;31.80;54.50;;;;;;5071952;28;20084;-84
2021/07/23 12:07:59;;;;;;;9.80;8.88;;;31.60;56.90;;;;;;5072241;28;20098;-84
2021/07/23 12:10:28;;;;;;;11.85;8.80;;;31.50;55.70;;;;;;5069228;28;20394;-85
2021/07/23 12:12:56;;;;;;;9.15;8.07;;;31.20;56.40;;;;;;5071053;28;20055;-84
2021/07/23 12:15:23;;;;;;;10.23;9.13;;;30.70;57.20;;;;;;5070845;28;20062;-85
2021/07/23 12:17:50;;;;;;;11.68;9.20;;;30.40;57.40;;;;;;5070794;28;20121;-84
2021/07/23 12:20:26;;;;;;;11.57;9.85;;;30.30;58.20;;;;;;5070970;28;20528;-84
2021/07/23 12:22:57;;;;;;;10.40;9.00;;;30.30;59.50;;;;;;5072227;28;20492;-85
2021/07/23 12:25:27;;;;;;;10.82;9.65;;;30.40;58.10;;;;;;5071101;28;20172;-84
2021/07/23 12:28:10;;;;;;;13.00;9.00;;;30.20;58.40;;;;;;5070501;28;20063;-85
2021/07/23 12:30:37;;;;;;;10.20;9.20;;;30.20;57.60;;;;;;5070907;28;20132;-85
2021/07/23 12:33:23;;;;;;;9.95;8.90;;;30.00;58.70;;;;;;5069742;28;20498;-84
2021/07/23 12:35:57;;;;;;;10.90;8.90;;;30.40;59.70;;;;;;5071605;28;20052;-83
2021/07/23 12:38:29;;;;;;;11.73;9.25;;;30.50;58.90;;;;;;5072243;28;20052;-82